createdAt,value
2023-04-09T00:00:57.156Z,953.94
2023-04-09T00:03:23.634Z,953.90
2023-04-09T00:05:49.960Z,953.85
2023-04-09T00:08:16.373Z,953.96
2023-04-09T00:10:42.787Z,954.01
2023-04-09T00:13:09.148Z,953.98
2023-04-09T00:15:35.584Z,953.99
2023-04-09T00:18:02.055Z,953.98
2023-04-09T00:20:28.470Z,954.08
2023-04-09T00:22:54.864Z,954.04
2023-04-09T00:25:21.277Z,954.06
2023-04-09T00:27:47.638Z,954.09
2023-04-09T00:30:14.014Z,954.08
2023-04-09T00:32:40.417Z,954.05
2023-04-09T00:35:06.813Z,954.02
2023-04-09T00:37:33.217Z,954.11
2023-04-09T00:39:59.598Z,954.09
2023-04-09T00:42:25.998Z,954.05
2023-04-09T00:44:52.367Z,954.03
2023-04-09T00:47:18.738Z,954.00
2023-04-09T00:49:45.114Z,954.06
2023-04-09T00:52:11.515Z,953.99
2023-04-09T00:54:37.924Z,953.92
2023-04-09T00:57:04.308Z,953.93
2023-04-09T00:59:30.756Z,953.98
2023-04-09T01:01:57.209Z,953.94
2023-04-09T01:04:23.534Z,953.98
2023-04-09T01:06:49.961Z,953.99
2023-04-09T01:09:16.394Z,954.01
2023-04-09T01:11:42.761Z,954.06
2023-04-09T01:14:09.185Z,954.03
2023-04-09T01:16:35.611Z,954.04
2023-04-09T01:19:01.987Z,954.07
2023-04-09T01:21:28.381Z,954.10
2023-04-09T01:23:54.816Z,954.02
2023-04-09T01:26:21.225Z,954.06
2023-04-09T01:28:47.604Z,954.10
2023-04-09T01:31:14.113Z,954.15
2023-04-09T01:33:40.484Z,954.11
2023-04-09T01:36:06.909Z,954.12
2023-04-09T01:38:33.316Z,954.09
2023-04-09T01:40:59.729Z,954.14
2023-04-09T01:43:26.104Z,954.09
2023-04-09T01:45:52.510Z,954.12
2023-04-09T01:48:18.896Z,954.13
2023-04-09T01:50:45.325Z,954.15
2023-04-09T01:53:11.742Z,954.15
2023-04-09T01:55:38.062Z,954.17
2023-04-09T01:58:04.482Z,954.07
2023-04-09T02:00:30.924Z,954.12
2023-04-09T02:02:57.367Z,954.01
2023-04-09T02:05:23.728Z,954.09
2023-04-09T02:07:50.115Z,954.06
2023-04-09T02:10:16.532Z,954.04
2023-04-09T02:12:42.942Z,954.05
2023-04-09T02:15:09.324Z,954.06
2023-04-09T02:17:35.700Z,954.06
2023-04-09T02:20:02.130Z,954.13
2023-04-09T02:22:28.515Z,954.03
2023-04-09T02:24:54.866Z,954.05
2023-04-09T02:27:21.290Z,953.99
2023-04-09T02:29:47.659Z,954.03
2023-04-09T02:32:14.030Z,954.06
2023-04-09T02:34:40.445Z,954.03
2023-04-09T02:37:07.023Z,954.02
2023-04-09T02:39:33.449Z,954.02
2023-04-09T02:41:59.810Z,954.05
2023-04-09T02:44:26.213Z,954.02
2023-04-09T02:46:52.599Z,954.04
2023-04-09T02:49:18.963Z,954.06
2023-04-09T02:51:45.418Z,954.05
2023-04-09T02:54:11.777Z,954.04
2023-04-09T02:56:38.200Z,953.98
2023-04-09T02:59:04.618Z,953.98
2023-04-09T03:01:31.159Z,953.98
2023-04-09T03:03:57.543Z,954.01
2023-04-09T03:06:23.785Z,953.98
2023-04-09T03:08:50.346Z,953.94
2023-04-09T03:11:16.575Z,953.94
2023-04-09T03:13:42.998Z,953.96
2023-04-09T03:16:09.407Z,953.94
2023-04-09T03:18:35.781Z,953.90
2023-04-09T03:21:02.151Z,953.95
2023-04-09T03:23:28.567Z,953.92
2023-04-09T03:25:54.961Z,953.91
2023-04-09T03:28:21.360Z,954.01
2023-04-09T03:30:47.760Z,953.99
2023-04-09T03:33:14.236Z,954.00
2023-04-09T03:35:40.676Z,954.01
2023-04-09T03:38:06.999Z,954.02
2023-04-09T03:40:33.418Z,954.06
2023-04-09T03:42:59.840Z,954.02
2023-04-09T03:45:26.248Z,954.03
2023-04-09T03:47:52.627Z,954.02
2023-04-09T03:50:19.042Z,953.99
2023-04-09T03:52:45.459Z,954.01
2023-04-09T03:55:11.877Z,954.09
2023-04-09T03:57:38.251Z,954.11
2023-04-09T04:00:04.638Z,954.16
2023-04-09T04:02:31.113Z,954.14
2023-04-09T04:04:57.431Z,954.19
2023-04-09T04:07:23.844Z,954.17
2023-04-09T04:09:50.219Z,954.21
2023-04-09T04:12:16.596Z,954.26
2023-04-09T04:14:43.007Z,954.23
2023-04-09T04:17:09.439Z,954.23
2023-04-09T04:19:35.810Z,954.18
2023-04-09T04:22:02.488Z,954.14
2023-04-09T04:24:28.879Z,954.22
2023-04-09T04:26:55.260Z,954.22
2023-04-09T04:29:21.637Z,954.22
2023-04-09T04:31:48.075Z,954.24
2023-04-09T04:34:14.425Z,954.27
2023-04-09T04:36:40.841Z,954.26
2023-04-09T04:39:07.390Z,954.29
2023-04-09T04:41:33.828Z,954.28
2023-04-09T04:44:00.188Z,954.29
2023-04-09T04:46:26.631Z,954.29
2023-04-09T04:48:53.248Z,954.32
2023-04-09T04:51:19.449Z,954.30
2023-04-09T04:53:45.856Z,954.25
2023-04-09T04:56:12.252Z,954.34
2023-04-09T04:58:38.645Z,954.37
2023-04-09T05:01:05.142Z,954.31
2023-04-09T05:03:31.518Z,954.31
2023-04-09T05:05:57.872Z,954.32
2023-04-09T05:08:24.370Z,954.37
2023-04-09T05:10:50.814Z,954.36
2023-04-09T05:13:17.206Z,954.37
2023-04-09T05:15:43.656Z,954.41
2023-04-09T05:18:10.079Z,954.44
2023-04-09T05:20:36.477Z,954.38
2023-04-09T05:23:02.892Z,954.41
2023-04-09T05:25:29.264Z,954.37
2023-04-09T05:27:55.641Z,954.45
2023-04-09T05:30:22.037Z,954.45
2023-04-09T05:32:48.490Z,954.40
2023-04-09T05:35:14.895Z,954.45
2023-04-09T05:37:41.318Z,954.40
2023-04-09T05:40:07.721Z,954.33
2023-04-09T05:42:34.295Z,954.42
2023-04-09T05:45:00.714Z,954.41
2023-04-09T05:47:27.209Z,954.45
2023-04-09T05:49:53.782Z,954.46
2023-04-09T05:52:20.241Z,954.46
2023-04-09T05:54:46.661Z,954.46
2023-04-09T05:57:13.140Z,954.43
2023-04-09T05:59:39.515Z,954.48
2023-04-09T06:02:06.005Z,954.48
2023-04-09T06:04:32.348Z,954.57
2023-04-09T06:06:58.707Z,954.52
2023-04-09T06:09:25.073Z,954.48
2023-04-09T06:11:51.450Z,954.40
2023-04-09T06:14:17.880Z,954.46
2023-04-09T06:16:44.377Z,954.45
2023-04-09T06:19:10.760Z,954.47
2023-04-09T06:21:37.183Z,954.47
2023-04-09T06:24:03.561Z,954.43
2023-04-09T06:26:30.011Z,954.50
2023-04-09T06:28:56.449Z,954.41
2023-04-09T06:31:22.938Z,954.49
2023-04-09T06:33:49.270Z,954.47
2023-04-09T06:36:15.831Z,954.50
2023-04-09T06:38:42.101Z,954.44
2023-04-09T06:41:08.560Z,954.57
2023-04-09T06:43:34.860Z,954.58
2023-04-09T06:46:01.268Z,954.59
2023-04-09T06:48:27.615Z,954.54
2023-04-09T06:50:54.036Z,954.68
2023-04-09T06:53:20.411Z,954.60
2023-04-09T06:55:46.825Z,954.63
2023-04-09T06:58:13.193Z,954.63
2023-04-09T07:00:39.745Z,954.61
2023-04-09T07:03:06.127Z,954.64
2023-04-09T07:05:32.480Z,954.65
2023-04-09T07:07:58.903Z,954.63
2023-04-09T07:10:25.340Z,954.63
2023-04-09T07:12:51.767Z,954.64
2023-04-09T07:15:18.194Z,954.70
2023-04-09T07:17:44.731Z,954.60
2023-04-09T07:20:11.093Z,954.65
2023-04-09T07:22:37.534Z,954.70
2023-04-09T07:25:04.048Z,954.69
2023-04-09T07:27:30.417Z,954.71
2023-04-09T07:29:57.098Z,954.74
2023-04-09T07:32:23.497Z,954.85
2023-04-09T07:34:49.880Z,954.70
2023-04-09T07:37:16.271Z,954.77
2023-04-09T07:39:42.678Z,954.68
2023-04-09T07:42:09.073Z,954.71
2023-04-09T07:44:35.446Z,954.71
2023-04-09T07:47:02.097Z,954.92
2023-04-09T07:49:28.336Z,954.84
2023-04-09T07:51:54.747Z,954.89
2023-04-09T07:54:21.184Z,954.93
2023-04-09T07:56:47.537Z,955.04
2023-04-09T07:59:14.203Z,954.93
2023-04-09T08:01:40.638Z,954.93
2023-04-09T08:04:07.438Z,954.91
2023-04-09T08:06:33.673Z,955.06
2023-04-09T08:09:00.070Z,955.02
2023-04-09T08:11:26.468Z,954.98
2023-04-09T08:13:52.931Z,954.96
2023-04-09T08:16:19.347Z,954.95
2023-04-09T08:18:45.721Z,955.06
2023-04-09T08:21:12.094Z,954.97
2023-04-09T08:23:38.573Z,955.02
2023-04-09T08:26:05.047Z,955.09
2023-04-09T08:28:31.457Z,955.04
2023-04-09T08:30:57.976Z,954.94
2023-04-09T08:33:24.385Z,955.00
2023-04-09T08:35:50.801Z,955.10
2023-04-09T08:38:17.220Z,955.05
2023-04-09T08:40:43.658Z,955.01
2023-04-09T08:43:10.044Z,954.95
2023-04-09T08:45:36.533Z,955.02
2023-04-09T08:48:03.016Z,954.95
2023-04-09T08:50:29.346Z,954.97
2023-04-09T08:52:56.118Z,954.95
2023-04-09T08:55:22.842Z,954.99
2023-04-09T08:57:49.550Z,954.87
2023-04-09T09:00:15.923Z,954.94
2023-04-09T09:02:42.467Z,954.85
2023-04-09T09:05:08.833Z,954.74
2023-04-09T09:07:35.385Z,954.87
2023-04-09T09:10:01.889Z,954.83
2023-04-09T09:12:28.362Z,954.71
2023-04-09T09:14:54.895Z,954.71
2023-04-09T09:17:21.425Z,954.67
2023-04-09T09:19:47.840Z,954.70
2023-04-09T09:22:14.269Z,954.68
2023-04-09T09:24:40.686Z,954.72
2023-04-09T09:27:07.101Z,954.86
2023-04-09T09:29:33.468Z,954.66
2023-04-09T09:31:59.895Z,954.53
2023-04-09T09:34:26.414Z,954.64
2023-04-09T09:36:52.804Z,954.58
2023-04-09T09:39:19.306Z,954.60
2023-04-09T09:41:45.725Z,954.46
2023-04-09T09:44:12.152Z,954.46
2023-04-09T09:46:38.616Z,954.44
2023-04-09T09:49:04.878Z,954.34
2023-04-09T09:51:31.325Z,954.47
2023-04-09T09:53:57.711Z,954.41
2023-04-09T09:56:24.118Z,954.44
2023-04-09T09:58:50.750Z,954.51
2023-04-09T10:01:16.973Z,954.43
2023-04-09T10:03:43.501Z,954.49
2023-04-09T10:06:09.919Z,954.39
2023-04-09T10:08:36.361Z,954.53
2023-04-09T10:11:02.855Z,954.26
2023-04-09T10:13:29.273Z,954.20
2023-04-09T10:15:55.678Z,954.21
2023-04-09T10:18:22.033Z,954.12
2023-04-09T10:20:48.419Z,954.11
2023-04-09T10:23:14.921Z,954.14
2023-04-09T10:25:41.350Z,954.17
2023-04-09T10:28:07.768Z,954.10
2023-04-09T10:30:34.186Z,954.14
2023-04-09T10:33:00.677Z,954.15
2023-04-09T10:35:27.098Z,954.03
2023-04-09T10:37:53.505Z,954.02
2023-04-09T10:40:19.924Z,954.02
2023-04-09T10:42:46.387Z,954.04
2023-04-09T10:45:12.798Z,954.03
2023-04-09T10:47:39.295Z,954.00
2023-04-09T10:50:05.951Z,953.95
2023-04-09T10:52:32.890Z,953.95
2023-04-09T10:54:59.273Z,953.87
2023-04-09T10:57:25.702Z,953.79
2023-04-09T10:59:52.113Z,953.92
2023-04-09T11:02:18.710Z,953.89
2023-04-09T11:04:45.127Z,953.68
2023-04-09T11:07:11.531Z,953.68
2023-04-09T11:09:37.962Z,953.63
2023-04-09T11:12:04.391Z,953.68
2023-04-09T11:14:30.768Z,953.60
2023-04-09T11:16:57.346Z,953.72
2023-04-09T11:19:23.715Z,953.68
2023-04-09T11:21:50.125Z,953.66
2023-04-09T11:24:16.537Z,953.70
2023-04-09T11:26:42.970Z,953.69
2023-04-09T11:29:09.354Z,953.66
2023-04-09T11:31:35.842Z,953.69
2023-04-09T11:34:02.245Z,953.65
2023-04-09T11:36:28.666Z,953.55
2023-04-09T11:38:55.228Z,953.59
2023-04-09T11:41:21.652Z,953.48
2023-04-09T11:43:48.059Z,953.45
2023-04-09T11:46:14.523Z,953.42
2023-04-09T11:48:40.855Z,953.45
2023-04-09T11:51:07.492Z,953.47
2023-04-09T11:53:33.852Z,953.45
2023-04-09T11:56:00.323Z,953.45
2023-04-09T11:58:26.875Z,953.57
2023-04-09T12:00:53.287Z,953.37
2023-04-09T12:03:20.416Z,953.39
2023-04-09T12:05:50.604Z,953.33
2023-04-09T12:08:12.902Z,953.37
2023-04-09T12:10:39.570Z,953.26
2023-04-09T12:13:06.168Z,953.36
2023-04-09T12:15:32.595Z,953.28
2023-04-09T12:17:59.075Z,953.20
2023-04-09T12:20:26.440Z,953.25
2023-04-09T12:22:52.833Z,953.22
2023-04-09T12:25:19.220Z,953.22
2023-04-09T12:27:45.729Z,953.19
2023-04-09T12:30:12.095Z,953.23
2023-04-09T12:32:38.566Z,953.14
2023-04-09T12:35:04.916Z,953.06
2023-04-09T12:37:31.289Z,953.20
2023-04-09T12:39:58.641Z,953.22
2023-04-09T12:42:25.030Z,953.18
2023-04-09T12:44:51.399Z,953.09
2023-04-09T12:47:18.023Z,953.02
2023-04-09T12:49:44.442Z,953.19
2023-04-09T12:52:10.810Z,953.02
2023-04-09T12:54:37.197Z,953.06
2023-04-09T12:57:06.166Z,953.01
2023-04-09T12:59:34.715Z,952.93
2023-04-09T13:02:01.346Z,953.03
2023-04-09T13:04:28.091Z,953.02
2023-04-09T13:06:55.570Z,953.00
2023-04-09T13:09:21.993Z,952.98
2023-04-09T13:11:48.735Z,952.96
2023-04-09T13:14:15.486Z,953.00
2023-04-09T13:16:43.012Z,952.95
2023-04-09T13:19:09.413Z,952.95
2023-04-09T13:21:38.932Z,953.04
2023-04-09T13:24:05.386Z,952.99
2023-04-09T13:26:32.079Z,953.06
2023-04-09T13:28:58.898Z,952.96
2023-04-09T13:31:27.415Z,952.96
2023-04-09T13:33:53.933Z,952.99
2023-04-09T13:36:20.370Z,952.97
2023-04-09T13:38:46.878Z,952.94
2023-04-09T13:41:13.219Z,952.84
2023-04-09T13:43:39.588Z,952.85
2023-04-09T13:46:05.980Z,952.84
2023-04-09T13:48:32.397Z,952.84
2023-04-09T13:50:58.804Z,952.82
2023-04-09T13:53:25.175Z,952.78
2023-04-09T13:55:51.619Z,952.82
2023-04-09T13:58:18.015Z,952.84
2023-04-09T14:00:44.380Z,952.82
2023-04-09T14:03:10.938Z,952.92
2023-04-09T14:05:37.157Z,952.85
2023-04-09T14:08:03.597Z,952.89
2023-04-09T14:10:30.008Z,952.88
2023-04-09T14:12:56.364Z,952.76
2023-04-09T14:15:22.768Z,952.80
2023-04-09T14:17:49.215Z,952.75
2023-04-09T14:20:15.698Z,952.72
2023-04-09T14:22:42.097Z,952.70
2023-04-09T14:25:08.626Z,952.73
2023-04-09T14:27:34.948Z,952.74
2023-04-09T14:30:01.357Z,952.72
2023-04-09T14:32:27.803Z,952.80
2023-04-09T14:34:54.100Z,952.74
2023-04-09T14:37:20.573Z,952.78
2023-04-09T14:39:46.962Z,952.74
2023-04-09T14:42:13.382Z,952.75
2023-04-09T14:44:39.850Z,952.73
2023-04-09T14:47:06.309Z,952.74
2023-04-09T14:49:32.625Z,952.79
2023-04-09T14:51:59.227Z,952.74
2023-04-09T14:54:28.009Z,952.77
2023-04-09T14:56:54.434Z,952.88
2023-04-09T14:59:20.821Z,952.71
2023-04-09T15:01:47.327Z,952.80
2023-04-09T15:04:13.782Z,952.79
2023-04-09T15:06:40.096Z,952.73
2023-04-09T15:09:06.538Z,952.69
2023-04-09T15:11:32.948Z,952.71
2023-04-09T15:13:59.376Z,952.65
2023-04-09T15:16:25.968Z,952.64
2023-04-09T15:18:52.846Z,952.68
2023-04-09T15:21:18.618Z,952.66
2023-04-09T15:23:45.126Z,952.67
2023-04-09T15:26:11.581Z,952.70
2023-04-09T15:28:37.983Z,952.72
2023-04-09T15:31:04.583Z,952.67
2023-04-09T15:33:33.399Z,952.72
2023-04-09T15:35:59.807Z,952.72
2023-04-09T15:38:26.192Z,952.72
2023-04-09T15:40:52.731Z,952.70
2023-04-09T15:43:19.118Z,952.69
2023-04-09T15:45:45.773Z,952.71
2023-04-09T15:48:12.201Z,952.63
2023-04-09T15:50:38.937Z,952.68
2023-04-09T15:53:05.400Z,952.65
2023-04-09T15:55:31.799Z,952.69
2023-04-09T15:57:58.201Z,952.68
2023-04-09T16:00:24.798Z,952.67
2023-04-09T16:02:51.200Z,952.67
2023-04-09T16:05:17.698Z,952.64
2023-04-09T16:07:44.331Z,952.67
2023-04-09T16:10:10.703Z,952.60
2023-04-09T16:12:37.141Z,952.60
2023-04-09T16:15:03.559Z,952.60
2023-04-09T16:17:30.786Z,952.61
2023-04-09T16:19:56.460Z,952.59
2023-04-09T16:22:22.840Z,952.65
2023-04-09T16:24:49.240Z,952.62
2023-04-09T16:27:15.665Z,952.60
2023-04-09T16:29:42.209Z,952.58
2023-04-09T16:32:08.617Z,952.57
2023-04-09T16:34:34.989Z,952.55
2023-04-09T16:37:01.708Z,952.58
2023-04-09T16:39:28.108Z,952.58
2023-04-09T16:41:54.549Z,952.63
2023-04-09T16:44:20.968Z,952.58
2023-04-09T16:46:47.518Z,952.59
2023-04-09T16:49:13.973Z,952.66
2023-04-09T16:51:40.401Z,952.61
2023-04-09T16:54:09.392Z,952.68
2023-04-09T16:56:35.829Z,952.69
2023-04-09T16:59:02.189Z,952.70
2023-04-09T17:01:31.020Z,952.62
2023-04-09T17:03:57.483Z,952.70
2023-04-09T17:06:23.866Z,952.69
2023-04-09T17:08:50.528Z,952.76
2023-04-09T17:11:16.842Z,952.76
2023-04-09T17:13:43.262Z,952.76
2023-04-09T17:16:09.658Z,952.82
2023-04-09T17:18:36.090Z,952.86
2023-04-09T17:21:02.533Z,952.82
2023-04-09T17:23:28.972Z,952.89
2023-04-09T17:25:56.973Z,952.89
2023-04-09T17:28:23.865Z,952.86
2023-04-09T17:30:51.149Z,952.84
2023-04-09T17:33:20.438Z,952.93
2023-04-09T17:35:50.105Z,952.93
2023-04-09T17:38:16.663Z,952.90
2023-04-09T17:40:44.203Z,952.95
2023-04-09T17:43:11.306Z,952.98
2023-04-09T17:45:39.206Z,953.08
2023-04-09T17:48:07.241Z,953.00
2023-04-09T17:50:34.376Z,953.11
2023-04-09T17:53:01.295Z,953.06
2023-04-09T17:55:28.256Z,953.08
2023-04-09T17:57:54.621Z,953.13
2023-04-09T18:00:21.084Z,953.12
2023-04-09T18:02:48.128Z,953.22
2023-04-09T18:05:14.663Z,953.24
2023-04-09T18:07:41.450Z,953.28
2023-04-09T18:10:07.888Z,953.31
2023-04-09T18:12:35.612Z,953.35
2023-04-09T18:15:02.986Z,953.30
2023-04-09T18:17:30.010Z,953.26
2023-04-09T18:19:57.188Z,953.26
2023-04-09T18:22:29.163Z,953.30
2023-04-09T18:25:06.322Z,953.35
2023-04-09T18:27:33.815Z,953.32
2023-04-09T18:30:00.882Z,953.34
2023-04-09T18:32:27.576Z,953.36
2023-04-09T18:34:55.333Z,953.41
2023-04-09T18:37:22.186Z,953.44
2023-04-09T18:39:49.126Z,953.47
2023-04-09T18:42:22.234Z,953.48
2023-04-09T18:44:49.993Z,953.42
2023-04-09T18:47:16.818Z,953.45
2023-04-09T18:49:43.768Z,953.53
2023-04-09T18:52:11.534Z,953.53
2023-04-09T18:54:38.477Z,953.55
2023-04-09T18:57:05.771Z,953.54
2023-04-09T18:59:32.573Z,953.49
2023-04-09T19:02:03.206Z,953.57
2023-04-09T19:04:37.749Z,953.54
2023-04-09T19:07:08.934Z,953.54
2023-04-09T19:09:35.712Z,953.52
2023-04-09T19:12:02.798Z,953.57
2023-04-09T19:14:29.618Z,953.58
2023-04-09T19:16:59.408Z,953.51
2023-04-09T19:19:27.350Z,953.49
2023-04-09T19:21:53.962Z,953.57
2023-04-09T19:24:21.811Z,953.57
2023-04-09T19:26:49.292Z,953.59
2023-04-09T19:29:16.305Z,953.59
2023-04-09T19:31:43.168Z,953.57
2023-04-09T19:34:11.146Z,953.55
2023-04-09T19:36:39.566Z,953.55
2023-04-09T19:39:08.013Z,953.57
2023-04-09T19:41:35.080Z,953.52
2023-04-09T19:44:02.061Z,953.54
2023-04-09T19:46:29.008Z,953.52
2023-04-09T19:48:55.945Z,953.50
2023-04-09T19:51:23.967Z,953.53
2023-04-09T19:53:50.866Z,953.52
2023-04-09T19:56:17.843Z,953.53
2023-04-09T19:58:44.763Z,953.53
2023-04-09T20:01:11.534Z,953.49
2023-04-09T20:03:38.472Z,953.50
2023-04-09T20:06:05.171Z,953.51
2023-04-09T20:08:32.130Z,953.46
2023-04-09T20:10:58.536Z,953.46
2023-04-09T20:13:24.944Z,953.47
2023-04-09T20:15:51.390Z,953.48
2023-04-09T20:18:17.783Z,953.42
2023-04-09T20:20:44.129Z,953.41
2023-04-09T20:23:10.531Z,953.37
2023-04-09T20:25:36.921Z,953.42
2023-04-09T20:28:03.677Z,953.34
2023-04-09T20:30:30.051Z,953.31
2023-04-09T20:32:56.509Z,953.35
2023-04-09T20:35:22.838Z,953.36
2023-04-09T20:37:49.470Z,953.33
2023-04-09T20:40:15.836Z,953.33
2023-04-09T20:42:42.262Z,953.36
2023-04-09T20:45:10.813Z,953.33
2023-04-09T20:47:37.283Z,953.32
2023-04-09T20:50:03.744Z,953.36
2023-04-09T20:52:30.138Z,953.35
2023-04-09T20:54:56.544Z,953.35
2023-04-09T20:57:22.956Z,953.32
2023-04-09T20:59:49.366Z,953.39
2023-04-09T21:02:15.863Z,953.33
2023-04-09T21:04:42.145Z,953.29
2023-04-09T21:07:08.556Z,953.31
2023-04-09T21:09:34.928Z,953.35
2023-04-09T21:12:01.345Z,953.30
2023-04-09T21:14:27.724Z,953.32
2023-04-09T21:16:54.140Z,953.39
2023-04-09T21:19:20.503Z,953.37
2023-04-09T21:21:46.870Z,953.41
2023-04-09T21:24:13.305Z,953.41
2023-04-09T21:26:50.992Z,953.40
2023-04-09T21:29:06.085Z,953.40
2023-04-09T21:31:32.513Z,953.39
2023-04-09T21:33:58.910Z,953.39
2023-04-09T21:36:25.291Z,953.39
2023-04-09T21:38:51.769Z,953.44
2023-04-09T21:41:18.076Z,953.38
2023-04-09T21:43:44.494Z,953.42
2023-04-09T21:46:10.974Z,953.41
2023-04-09T21:48:38.895Z,953.35
2023-04-09T21:51:03.697Z,953.43
2023-04-09T21:53:30.058Z,953.29
2023-04-09T21:55:56.477Z,953.34
2023-04-09T21:58:22.864Z,953.35
2023-04-09T22:00:49.226Z,953.33
2023-04-09T22:03:15.831Z,953.39
2023-04-09T22:05:42.054Z,953.37
2023-04-09T22:08:08.512Z,953.39
2023-04-09T22:10:34.911Z,953.38
2023-04-09T22:13:01.353Z,953.33
2023-04-09T22:15:27.801Z,953.37
2023-04-09T22:17:56.636Z,953.43
2023-04-09T22:20:23.012Z,953.38
2023-04-09T22:22:49.550Z,953.43
2023-04-09T22:25:15.918Z,953.41
2023-04-09T22:27:42.285Z,953.42
2023-04-09T22:30:08.707Z,953.44
2023-04-09T22:32:35.148Z,953.40
2023-04-09T22:35:01.642Z,953.42
2023-04-09T22:37:28.036Z,953.35
2023-04-09T22:39:54.444Z,953.35
2023-04-09T22:42:20.859Z,953.44
2023-04-09T22:44:47.264Z,953.39
2023-04-09T22:47:13.638Z,953.44
2023-04-09T22:49:40.049Z,953.41
2023-04-09T22:52:06.410Z,953.45
2023-04-09T22:54:32.819Z,953.38
2023-04-09T22:56:59.185Z,953.38
2023-04-09T22:59:33.735Z,953.30
2023-04-09T23:01:52.045Z,953.32
2023-04-09T23:04:18.455Z,953.32
2023-04-09T23:06:45.905Z,953.29
2023-04-09T23:09:12.339Z,953.27
2023-04-09T23:11:38.788Z,953.30
2023-04-09T23:14:05.169Z,953.32
2023-04-09T23:16:31.599Z,953.32
2023-04-09T23:18:57.937Z,953.31
2023-04-09T23:21:24.350Z,953.24
2023-04-09T23:23:50.768Z,953.21
2023-04-09T23:26:17.239Z,953.27
2023-04-09T23:28:43.613Z,953.20
2023-04-09T23:31:10.015Z,953.27
2023-04-09T23:33:36.401Z,953.23
2023-04-09T23:36:02.814Z,953.20
2023-04-09T23:38:29.191Z,953.24
2023-04-09T23:40:55.574Z,953.17
2023-04-09T23:43:22.013Z,953.19
2023-04-09T23:45:48.367Z,953.18
2023-04-09T23:48:14.742Z,953.20
2023-04-09T23:50:41.208Z,953.18
2023-04-09T23:53:07.608Z,953.20
2023-04-09T23:55:34.031Z,953.16
2023-04-09T23:58:00.448Z,953.22
